Yosemite National Park, CA

6:21 AM PST op 27 januari 2015 (GMT -0800)
RAWS JERSEYDALE CA US | Change Station
CLOSE
Current Station
Persoonlijk weerstation
Location: Mariposa, CA
Geometrische hoogte: 3749 ft
Nabije weerstations

Hoogte 3749 ft 37.54 °N, 119.84 °W | Updated 34 minutes ago

Korrelhagel
Korrelhagel
45 °F
Voelt als 45 °F
N
1
Wind Variabel Wind van zuid
Gusts 2.0 mijl/u

Vandaag
Hoog -- | Laag -- °F
--% Kans op neerslag
Gisteren
Hoog -- | Laag -- °F
Precip. -- inches
7:06 AM 5:16 PM
Eerste kwartier, 54% visible
Druk 30.15 inches
Zicht 10.0 mijlen
Wolken Gering 5000 ft
Merendeels bewolkt 6000 ft
Geheel bewolkt 7000 ft
Gevoelstemperatuur 45 °F
Dauwpunt 44 °F
Vochtigheid 97%
Neerslag 0.07 inches
Dikte sneeuw Niet beschikbaar.
UV 0 van de 12
Pollen 1.80 van de 12
Luchtkwaliteit Niet beschikbaar.
Flu Activity Niet beschikbaar.
METAR KO22 271355Z AUTO 00000KT 10SM FEW050 BKN060 OVC070 13/09 A3015 RMK AO1

More Conditions Fewer Conditions

Druk 30.15 inches
Zicht 10.0 mijlen
Wolken Gering 5000 ft
Merendeels bewolkt 6000 ft
Geheel bewolkt 7000 ft
Gevoelstemperatuur 45 °F
Dauwpunt 44 °F
Vochtigheid 97%
Neerslag 0.07 inches
Dikte sneeuw Niet beschikbaar.
UV 0 van de 12
Pollen 1.80 van de 12
Luchtkwaliteit Niet beschikbaar.
Flu Activity Niet beschikbaar.
METAR KO22 271355Z AUTO 00000KT 10SM FEW050 BKN060 OVC070 13/09 A3015 RMK AO1

More Conditions Fewer Conditions

10-Day Weather Forecast

Almanac

Astronomie

Jan. 27, 2015 Opkomst Ondergang
Werkelijke tijd
Burgerlijke schemering
Nautische schemering
Astronomische schemering
Maan
Golflengte van het zichtbare licht
Daglengte
Tomorrow will be .
, % of the Moon is Illuminated

Extremen vandaag

State Highs State Lows

Community

WunderPhotos

Upload Photos

1,790,648 foto’s ge-upload!

WunderBlogs® & News

Nearby

Luchtkwaliteit

  Luchtkwaliteit LK-index Verontreinigende stof
Not available.

Dikte sneeuw

Station Depth Geometrische hoogte

Aardbevingen

Stad Distance Mag. Time & Date
Minimum magnitude displayed is 2.5.

Watertemperatuur langs de kust

Plaats Temperatuur

Nabije weerstations